Terminal Aerodrome Forecast
Issued by NWS

Home | Current Version | Previous Version | Graphics & Text | Print | Product List | Glossary On
Versions: 1 2 3 4 5 6 7 8 9 10 11 12 13 14 15 16 17 18 19 20 21 22 23 24
421
FTUS43 KBIS 212331
TAFJMS
TAF
KJMS 212331Z 2200/2224 35010KT P6SM FEW140
     FM220200 35006KT P6SM BKN150
     FM221600 34013G20KT P6SM BKN080=

USA.gov is the U.S. government's official web portal to all federal, state and local government web resources and services.